sensor_id;sensor_type;location;lat;lon;timestamp;pressure;altitude;pressure_sealevel;temperature;humidity
64827;BME280;51265;53.972;12.286;2023-04-29T00:00:35;100429.56;;;6.06;100.00
64827;BME280;51265;53.972;12.286;2023-04-29T00:03:02;100430.91;;;6.04;100.00
64827;BME280;51265;53.972;12.286;2023-04-29T00:05:28;100423.50;;;6.09;100.00
64827;BME280;51265;53.972;12.286;2023-04-29T00:07:55;100432.00;;;6.08;100.00
64827;BME280;51265;53.972;12.286;2023-04-29T00:10:22;100428.16;;;6.09;100.00
64827;BME280;51265;53.972;12.286;2023-04-29T00:12:48;100424.31;;;6.10;100.00
64827;BME280;51265;53.972;12.286;2023-04-29T00:15:16;100430.63;;;6.15;100.00
64827;BME280;51265;53.972;12.286;2023-04-29T00:17:43;100421.06;;;6.13;100.00
64827;BME280;51265;53.972;12.286;2023-04-29T00:20:10;100424.88;;;6.12;100.00
64827;BME280;51265;53.972;12.286;2023-04-29T00:22:37;100422.16;;;6.17;100.00
64827;BME280;51265;53.972;12.286;2023-04-29T00:25:04;100419.97;;;6.19;100.00
64827;BME280;51265;53.972;12.286;2023-04-29T00:27:31;100421.59;;;6.20;100.00
64827;BME280;51265;53.972;12.286;2023-04-29T00:29:58;100415.59;;;6.28;100.00
64827;BME280;51265;53.972;12.286;2023-04-29T00:32:24;100413.94;;;6.27;100.00
64827;BME280;51265;53.972;12.286;2023-04-29T00:34:51;100417.25;;;6.19;100.00
64827;BME280;51265;53.972;12.286;2023-04-29T00:37:17;100429.25;;;6.18;100.00
64827;BME280;51265;53.972;12.286;2023-04-29T00:39:44;100422.13;;;6.22;100.00
64827;BME280;51265;53.972;12.286;2023-04-29T00:42:10;100419.94;;;6.29;100.00
64827;BME280;51265;53.972;12.286;2023-04-29T00:44:37;100421.59;;;6.30;100.00
64827;BME280;51265;53.972;12.286;2023-04-29T00:47:04;100418.84;;;6.25;100.00
64827;BME280;51265;53.972;12.286;2023-04-29T00:49:31;100423.78;;;6.28;100.00
64827;BME280;51265;53.972;12.286;2023-04-29T00:51:58;100418.31;;;6.28;100.00
64827;BME280;51265;53.972;12.286;2023-04-29T00:54:25;100416.69;;;6.27;100.00
64827;BME280;51265;53.972;12.286;2023-04-29T00:56:53;100423.78;;;6.28;100.00
64827;BME280;51265;53.972;12.286;2023-04-29T00:59:21;100424.06;;;6.32;100.00
64827;BME280;51265;53.972;12.286;2023-04-29T01:01:49;100420.78;;;6.30;100.00
64827;BME280;51265;53.972;12.286;2023-04-29T01:04:15;100425.41;;;6.34;100.00
64827;BME280;51265;53.972;12.286;2023-04-29T01:15:29;100416.13;;;6.20;100.00
64827;BME280;51265;53.972;12.286;2023-04-29T01:18:11;100411.75;;;6.24;100.00
64827;BME280;51265;53.972;12.286;2023-04-29T01:20:39;100409.03;;;6.19;100.00
64827;BME280;51265;53.972;12.286;2023-04-29T01:23:07;100411.22;;;6.17;100.00
64827;BME280;51265;53.972;12.286;2023-04-29T01:25:34;100404.09;;;6.16;100.00
64827;BME280;51265;53.972;12.286;2023-04-29T01:31:18;100398.63;;;6.16;100.00
64827;BME280;51265;53.972;12.286;2023-04-29T01:34:07;100395.63;;;6.17;100.00
64827;BME280;51265;53.972;12.286;2023-04-29T01:37:16;100398.63;;;6.26;100.00
64827;BME280;51265;53.972;12.286;2023-04-29T01:39:59;100400.25;;;6.32;100.00
64827;BME280;51265;53.972;12.286;2023-04-29T01:42:45;100409.00;;;6.34;100.00
64827;BME280;51265;53.972;12.286;2023-04-29T01:45:17;100397.22;;;6.39;100.00
64827;BME280;51265;53.972;12.286;2023-04-29T01:47:45;100400.78;;;6.34;100.00
64827;BME280;51265;53.972;12.286;2023-04-29T01:50:12;100397.81;;;6.36;100.00
64827;BME280;51265;53.972;12.286;2023-04-29T01:52:39;100393.69;;;6.33;100.00
64827;BME280;51265;53.972;12.286;2023-04-29T01:55:06;100401.34;;;6.36;100.00
64827;BME280;51265;53.972;12.286;2023-04-29T01:57:43;100395.91;;;6.31;100.00
64827;BME280;51265;53.972;12.286;2023-04-29T02:00:19;100398.63;;;6.26;100.00
64827;BME280;51265;53.972;12.286;2023-04-29T02:02:50;100400.28;;;6.27;100.00
64827;BME280;51265;53.972;12.286;2023-04-29T02:05:49;100394.81;;;6.27;100.00
64827;BME280;51265;53.972;12.286;2023-04-29T02:08:16;100400.28;;;6.27;100.00
64827;BME280;51265;53.972;12.286;2023-04-29T02:10:55;100405.19;;;6.25;100.00
64827;BME280;51265;53.972;12.286;2023-04-29T02:13:31;100406.56;;;6.17;100.00
64827;BME280;51265;53.972;12.286;2023-04-29T02:16:09;100407.91;;;6.25;100.00
64827;BME280;51265;53.972;12.286;2023-04-29T02:18:37;100410.66;;;6.25;100.00
64827;BME280;51265;53.972;12.286;2023-04-29T02:21:05;100407.91;;;6.25;100.00
64827;BME280;51265;53.972;12.286;2023-04-29T02:23:34;100407.38;;;6.28;100.00
64827;BME280;51265;53.972;12.286;2023-04-29T02:26:01;100406.84;;;6.31;100.00
64827;BME280;51265;53.972;12.286;2023-04-29T02:28:31;100413.38;;;6.35;100.00
64827;BME280;51265;53.972;12.286;2023-04-29T02:30:57;100413.94;;;6.37;100.00
64827;BME280;51265;53.972;12.286;2023-04-29T02:33:24;100412.28;;;6.41;100.00
64827;BME280;51265;53.972;12.286;2023-04-29T02:35:50;100416.13;;;6.40;100.00
64827;BME280;51265;53.972;12.286;2023-04-29T02:38:17;100410.38;;;6.37;100.00
64827;BME280;51265;53.972;12.286;2023-04-29T02:40:44;100408.97;;;6.39;100.00
64827;BME280;51265;53.972;12.286;2023-04-29T02:43:11;100412.81;;;6.38;100.00
64827;BME280;51265;53.972;12.286;2023-04-29T02:45:38;100425.41;;;6.39;100.00
64827;BME280;51265;53.972;12.286;2023-04-29T02:48:05;100414.47;;;6.34;100.00
64827;BME280;51265;53.972;12.286;2023-04-29T02:50:32;100420.22;;;6.33;100.00
64827;BME280;51265;53.972;12.286;2023-04-29T02:52:59;100421.03;;;6.33;100.00
64827;BME280;51265;53.972;12.286;2023-04-29T02:55:25;100420.50;;;6.31;100.00
64827;BME280;51265;53.972;12.286;2023-04-29T02:57:54;100423.25;;;6.31;100.00
64827;BME280;51265;53.972;12.286;2023-04-29T03:00:21;100422.13;;;6.37;100.00
64827;BME280;51265;53.972;12.286;2023-04-29T03:02:47;100430.06;;;6.39;100.00
64827;BME280;51265;53.972;12.286;2023-04-29T03:05:14;100423.50;;;6.40;100.00
64827;BME280;51265;53.972;12.286;2023-04-29T03:07:40;100425.97;;;6.41;100.00
64827;BME280;51265;53.972;12.286;2023-04-29T03:10:07;100424.03;;;6.47;100.00
64827;BME280;51265;53.972;12.286;2023-04-29T03:12:37;100437.41;;;6.59;100.00
64827;BME280;51265;53.972;12.286;2023-04-29T03:15:08;100429.19;;;6.69;100.00
64827;BME280;51265;53.972;12.286;2023-04-29T03:17:36;100428.09;;;6.70;100.00
64827;BME280;51265;53.972;12.286;2023-04-29T03:20:03;100432.47;;;6.71;100.00
64827;BME280;51265;53.972;12.286;2023-04-29T03:22:30;100433.03;;;6.73;100.00
64827;BME280;51265;53.972;12.286;2023-04-29T03:24:56;100446.69;;;6.73;100.00
64827;BME280;51265;53.972;12.286;2023-04-29T03:27:23;100436.81;;;6.77;100.00
64827;BME280;51265;53.972;12.286;2023-04-29T03:29:49;100436.81;;;6.77;100.00
64827;BME280;51265;53.972;12.286;2023-04-29T03:32:16;100440.41;;;6.78;100.00
64827;BME280;51265;53.972;12.286;2023-04-29T03:34:44;100437.94;;;6.71;100.00
64827;BME280;51265;53.972;12.286;2023-04-29T03:37:30;100439.03;;;6.75;100.00
64827;BME280;51265;53.972;12.286;2023-04-29T03:40:11;100441.75;;;6.75;100.00
64827;BME280;51265;53.972;12.286;2023-04-29T03:42:39;100443.38;;;6.81;100.00
64827;BME280;51265;53.972;12.286;2023-04-29T03:45:06;100446.66;;;6.83;100.00
64827;BME280;51265;53.972;12.286;2023-04-29T03:47:32;100452.66;;;6.90;100.00
64827;BME280;51265;53.972;12.286;2023-04-29T03:50:00;100449.38;;;6.88;100.00
64827;BME280;51265;53.972;12.286;2023-04-29T03:52:26;100449.94;;;6.90;100.00
64827;BME280;51265;53.972;12.286;2023-04-29T03:54:58;100447.72;;;6.92;100.00
64827;BME280;51265;53.972;12.286;2023-04-29T03:57:25;100456.19;;;7.01;100.00
64827;BME280;51265;53.972;12.286;2023-04-29T03:59:53;100448.22;;;7.05;100.00
64827;BME280;51265;53.972;12.286;2023-04-29T04:02:20;100443.03;;;7.08;100.00
64827;BME280;51265;53.972;12.286;2023-04-29T04:04:47;100452.59;;;7.06;100.00
64827;BME280;51265;53.972;12.286;2023-04-29T04:07:13;100452.91;;;7.04;100.00
64827;BME280;51265;53.972;12.286;2023-04-29T04:10:00;100454.25;;;7.02;100.00
64827;BME280;51265;53.972;12.286;2023-04-29T04:12:26;100451.00;;;6.99;100.00
64827;BME280;51265;53.972;12.286;2023-04-29T04:14:52;100461.94;;;6.99;100.00
64827;BME280;51265;53.972;12.286;2023-04-29T04:17:20;100464.69;;;6.89;100.00
64827;BME280;51265;53.972;12.286;2023-04-29T04:19:47;100470.44;;;6.93;100.00
64827;BME280;51265;53.972;12.286;2023-04-29T04:22:13;100477.06;;;6.82;100.00
64827;BME280;51265;53.972;12.286;2023-04-29T04:24:46;100479.50;;;6.83;100.00
64827;BME280;51265;53.972;12.286;2023-04-29T04:27:13;100478.94;;;6.91;100.00
64827;BME280;51265;53.972;12.286;2023-04-29T04:29:44;100479.22;;;6.95;100.00
64827;BME280;51265;53.972;12.286;2023-04-29T04:32:15;100483.03;;;6.99;100.00
64827;BME280;51265;53.972;12.286;2023-04-29T04:34:43;100485.19;;;7.07;100.00
64827;BME280;51265;53.972;12.286;2023-04-29T04:37:09;100486.03;;;6.97;100.00
64827;BME280;51265;53.972;12.286;2023-04-29T04:39:38;100483.88;;;6.89;100.00
64827;BME280;51265;53.972;12.286;2023-04-29T04:42:05;100480.31;;;6.94;100.00
64827;BME280;51265;53.972;12.286;2023-04-29T04:44:33;100488.28;;;6.75;100.00
64827;BME280;51265;53.972;12.286;2023-04-29T04:47:05;100496.22;;;6.77;100.00
64827;BME280;51265;53.972;12.286;2023-04-29T04:49:57;100504.16;;;6.68;100.00
64827;BME280;51265;53.972;12.286;2023-04-29T04:52:23;100510.22;;;6.65;100.00
64827;BME280;51265;53.972;12.286;2023-04-29T04:55:01;100511.59;;;6.57;100.00
64827;BME280;51265;53.972;12.286;2023-04-29T04:57:29;100502.00;;;6.55;100.00
64827;BME280;51265;53.972;12.286;2023-04-29T05:00:00;100507.47;;;6.49;100.00
64827;BME280;51265;53.972;12.286;2023-04-29T05:02:27;100514.31;;;6.52;100.00
64827;BME280;51265;53.972;12.286;2023-04-29T05:04:54;100512.13;;;6.39;100.00
64827;BME280;51265;53.972;12.286;2023-04-29T05:07:24;100515.41;;;6.41;100.00
64827;BME280;51265;53.972;12.286;2023-04-29T05:10:03;100518.41;;;6.39;100.00
64827;BME280;51265;53.972;12.286;2023-04-29T05:12:33;100521.16;;;6.44;100.00
64827;BME280;51265;53.972;12.286;2023-04-29T05:15:02;100522.78;;;6.45;100.00
64827;BME280;51265;53.972;12.286;2023-04-29T05:17:31;100532.66;;;6.57;100.00
64827;BME280;51265;53.972;12.286;2023-04-29T05:19:57;100529.06;;;6.56;100.00
64827;BME280;51265;53.972;12.286;2023-04-29T05:22:24;100533.19;;;6.59;100.00
64827;BME280;51265;53.972;12.286;2023-04-29T05:24:50;100533.19;;;6.64;100.00
64827;BME280;51265;53.972;12.286;2023-04-29T05:27:20;100538.38;;;6.76;100.00
64827;BME280;51265;53.972;12.286;2023-04-29T05:29:47;100539.50;;;6.69;100.00
64827;BME280;51265;53.972;12.286;2023-04-29T05:32:14;100538.38;;;6.76;100.00
64827;BME280;51265;53.972;12.286;2023-04-29T05:34:40;100540.28;;;6.80;100.00
64827;BME280;51265;53.972;12.286;2023-04-29T05:37:07;100546.03;;;6.84;100.00
64827;BME280;51265;53.972;12.286;2023-04-29T05:39:43;100547.94;;;6.88;100.00
64827;BME280;51265;53.972;12.286;2023-04-29T05:42:14;100554.53;;;6.82;100.00
64827;BME280;51265;53.972;12.286;2023-04-29T05:44:45;100553.97;;;6.75;100.00
64827;BME280;51265;53.972;12.286;2023-04-29T05:47:11;100554.25;;;6.68;100.00
64827;BME280;51265;53.972;12.286;2023-04-29T05:49:39;100556.72;;;6.70;100.00
64827;BME280;51265;53.972;12.286;2023-04-29T05:52:05;100560.00;;;6.82;100.00
64827;BME280;51265;53.972;12.286;2023-04-29T05:54:36;100563.28;;;6.84;100.00
64827;BME280;51265;53.972;12.286;2023-04-29T05:57:03;100574.78;;;6.91;100.00
64827;BME280;51265;53.972;12.286;2023-04-29T05:59:30;100573.13;;;6.90;100.00
64827;BME280;51265;53.972;12.286;2023-04-29T06:01:58;100581.88;;;6.97;100.00
64827;BME280;51265;53.972;12.286;2023-04-29T06:04:26;100585.16;;;7.05;100.00
64827;BME280;51265;53.972;12.286;2023-04-29T06:07:11;100583.50;;;6.93;100.00
64827;BME280;51265;53.972;12.286;2023-04-29T06:10:10;100600.22;;;7.07;100.00
64827;BME280;51265;53.972;12.286;2023-04-29T06:12:36;100595.53;;;7.18;100.00
64827;BME280;51265;53.972;12.286;2023-04-29T06:15:03;100604.28;;;7.25;100.00
64827;BME280;51265;53.972;12.286;2023-04-29T06:17:29;100607.03;;;7.25;100.00
64827;BME280;51265;53.972;12.286;2023-04-29T06:19:57;100616.88;;;7.41;100.00
64827;BME280;51265;53.972;12.286;2023-04-29T06:22:23;100617.34;;;7.59;100.00
64827;BME280;51265;53.972;12.286;2023-04-29T06:24:52;100618.19;;;7.59;100.00
64827;BME280;51265;53.972;12.286;2023-04-29T06:27:33;100619.25;;;7.73;100.00
64827;BME280;51265;53.972;12.286;2023-04-29T06:30:00;100624.38;;;7.90;100.00
64827;BME280;51265;53.972;12.286;2023-04-29T06:32:26;100617.75;;;7.96;100.00
64827;BME280;51265;53.972;12.286;2023-04-29T06:34:53;100618.22;;;8.14;100.00
64827;BME280;51265;53.972;12.286;2023-04-29T06:37:30;100609.13;;;8.23;100.00
64827;BME280;51265;53.972;12.286;2023-04-29T06:40:10;100609.88;;;8.34;100.00
64827;BME280;51265;53.972;12.286;2023-04-29T06:42:57;100604.38;;;8.34;100.00
64827;BME280;51265;53.972;12.286;2023-04-29T06:45:47;100604.78;;;8.57;100.00
64827;BME280;51265;53.972;12.286;2023-04-29T06:48:36;100595.72;;;8.61;100.00
64827;BME280;51265;53.972;12.286;2023-04-29T06:51:03;100611.28;;;8.71;100.00
64827;BME280;51265;53.972;12.286;2023-04-29T06:53:30;100608.53;;;8.71;100.00
64827;BME280;51265;53.972;12.286;2023-04-29T06:55:56;100611.19;;;8.81;100.00
64827;BME280;51265;53.972;12.286;2023-04-29T06:58:23;100613.94;;;8.86;100.00
64827;BME280;51265;53.972;12.286;2023-04-29T07:00:50;100607.94;;;8.79;100.00
64827;BME280;51265;53.972;12.286;2023-04-29T07:03:17;100608.44;;;8.81;100.00
64827;BME280;51265;53.972;12.286;2023-04-29T07:05:44;100605.63;;;8.91;100.00
64827;BME280;51265;53.972;12.286;2023-04-29T07:08:11;100602.22;;;9.05;100.00
64827;BME280;51265;53.972;12.286;2023-04-29T07:10:38;100602.28;;;9.23;100.00
64827;BME280;51265;53.972;12.286;2023-04-29T07:13:05;100599.22;;;9.30;100.00
64827;BME280;51265;53.972;12.286;2023-04-29T07:15:35;100596.34;;;9.40;100.00
64827;BME280;51265;53.972;12.286;2023-04-29T07:18:03;100596.59;;;9.68;100.00
64827;BME280;51265;53.972;12.286;2023-04-29T07:20:30;100598.56;;;9.86;100.00
64827;BME280;51265;53.972;12.286;2023-04-29T07:22:57;100606.53;;;9.88;100.00
64827;BME280;51265;53.972;12.286;2023-04-29T07:25:25;100608.25;;;10.03;100.00
64827;BME280;51265;53.972;12.286;2023-04-29T07:27:52;100606.03;;;10.05;100.00
64827;BME280;51265;53.972;12.286;2023-04-29T07:30:19;100607.97;;;10.23;100.00
64827;BME280;51265;53.972;12.286;2023-04-29T07:32:46;100603.91;;;10.20;100.00
64827;BME280;51265;53.972;12.286;2023-04-29T07:35:12;100599.06;;;10.12;100.00
64827;BME280;51265;53.972;12.286;2023-04-29T07:37:39;100608.31;;;10.40;100.00
64827;BME280;51265;53.972;12.286;2023-04-29T07:40:06;100603.41;;;10.37;100.00
64827;BME280;51265;53.972;12.286;2023-04-29T07:42:33;100607.25;;;10.36;100.00
64827;BME280;51265;53.972;12.286;2023-04-29T07:45:00;100623.94;;;10.64;100.00
64827;BME280;51265;53.972;12.286;2023-04-29T07:47:27;100621.97;;;10.83;100.00
64827;BME280;51265;53.972;12.286;2023-04-29T07:49:54;100620.94;;;10.79;100.00
64827;BME280;51265;53.972;12.286;2023-04-29T07:52:21;100619.69;;;10.71;100.00
64827;BME280;51265;53.972;12.286;2023-04-29T07:54:48;100606.81;;;10.67;100.00
64827;BME280;51265;53.972;12.286;2023-04-29T07:57:15;100615.88;;;10.67;100.00
64827;BME280;51265;53.972;12.286;2023-04-29T07:59:41;100623.56;;;10.70;100.00
64827;BME280;51265;53.972;12.286;2023-04-29T08:02:08;100623.06;;;10.82;100.00
64827;BME280;51265;53.972;12.286;2023-04-29T08:04:38;100619.16;;;11.02;100.00
64827;BME280;51265;53.972;12.286;2023-04-29T08:07:08;100612.09;;;11.29;100.00
64827;BME280;51265;53.972;12.286;2023-04-29T08:09:35;100603.88;;;11.10;100.00
64827;BME280;51265;53.972;12.286;2023-04-29T08:12:03;100600.88;;;11.39;100.00
64827;BME280;51265;53.972;12.286;2023-04-29T08:14:30;100599.44;;;11.41;100.00
64827;BME280;51265;53.972;12.286;2023-04-29T08:16:58;100600.84;;;11.25;100.00
64827;BME280;51265;53.972;12.286;2023-04-29T08:19:24;100588.59;;;11.31;100.00
64827;BME280;51265;53.972;12.286;2023-04-29T08:21:51;100585.94;;;11.26;100.00
64827;BME280;51265;53.972;12.286;2023-04-29T08:24:21;100584.09;;;11.08;100.00
64827;BME280;51265;53.972;12.286;2023-04-29T08:27:02;100572.78;;;10.90;100.00
64827;BME280;51265;53.972;12.286;2023-04-29T08:29:30;100570.72;;;10.82;100.00
64827;BME280;51265;53.972;12.286;2023-04-29T08:31:58;100576.50;;;11.00;100.00
64827;BME280;51265;53.972;12.286;2023-04-29T08:34:24;100588.22;;;11.52;100.00
64827;BME280;51265;53.972;12.286;2023-04-29T08:36:51;100578.81;;;11.80;100.00
64827;BME280;51265;53.972;12.286;2023-04-29T08:39:18;100582.88;;;11.69;100.00
64827;BME280;51265;53.972;12.286;2023-04-29T08:41:44;100557.94;;;11.33;100.00
64827;BME280;51265;53.972;12.286;2023-04-29T08:44:14;100580.16;;;11.55;100.00
64827;BME280;51265;53.972;12.286;2023-04-29T08:46:45;100562.38;;;11.47;100.00
64827;BME280;51265;53.972;12.286;2023-04-29T08:49:12;100559.81;;;11.65;100.00
64827;BME280;51265;53.972;12.286;2023-04-29T08:51:38;100550.81;;;11.73;100.00
64827;BME280;51265;53.972;12.286;2023-04-29T08:54:05;100548.94;;;11.82;100.00
64827;BME280;51265;53.972;12.286;2023-04-29T08:56:33;100512.06;;;11.78;97.93
64827;BME280;51265;53.972;12.286;2023-04-29T08:59:01;100539.56;;;11.97;99.15
64827;BME280;51265;53.972;12.286;2023-04-29T09:01:28;100533.63;;;11.90;99.04
64827;BME280;51265;53.972;12.286;2023-04-29T09:06:55;100537.31;;;11.58;99.53
64827;BME280;51265;53.972;12.286;2023-04-29T09:09:23;100512.22;;;11.45;97.89
64827;BME280;51265;53.972;12.286;2023-04-29T09:11:51;100507.34;;;11.29;96.68
64827;BME280;51265;53.972;12.286;2023-04-29T09:14:19;100503.09;;;10.90;97.17
64827;BME280;51265;53.972;12.286;2023-04-29T09:16:46;100535.06;;;11.05;100.00
64827;BME280;51265;53.972;12.286;2023-04-29T09:19:28;100544.28;;;11.14;100.00
64827;BME280;51265;53.972;12.286;2023-04-29T09:21:56;100543.34;;;11.05;100.00
64827;BME280;51265;53.972;12.286;2023-04-29T09:24:27;100554.88;;;11.07;100.00
64827;BME280;51265;53.972;12.286;2023-04-29T09:26:54;100573.50;;;11.42;100.00
64827;BME280;51265;53.972;12.286;2023-04-29T09:29:20;100578.19;;;11.56;100.00
64827;BME280;51265;53.972;12.286;2023-04-29T09:31:47;100552.44;;;11.60;100.00
64827;BME280;51265;53.972;12.286;2023-04-29T09:34:14;100566.06;;;11.84;100.00
64827;BME280;51265;53.972;12.286;2023-04-29T09:36:50;100543.44;;;11.82;100.00
64827;BME280;51265;53.972;12.286;2023-04-29T09:39:22;100546.31;;;11.91;100.00
64827;BME280;51265;53.972;12.286;2023-04-29T09:44:23;100540.63;;;11.46;100.00
64827;BME280;51265;53.972;12.286;2023-04-29T09:47:02;100539.56;;;11.28;100.00
64827;BME280;51265;53.972;12.286;2023-04-29T09:49:31;100538.97;;;11.31;99.96
64827;BME280;51265;53.972;12.286;2023-04-29T09:52:00;100554.69;;;11.44;100.00
64827;BME280;51265;53.972;12.286;2023-04-29T09:54:28;100569.50;;;11.48;100.00
64827;BME280;51265;53.972;12.286;2023-04-29T09:56:56;100560.63;;;11.52;100.00
64827;BME280;51265;53.972;12.286;2023-04-29T09:59:23;100551.88;;;11.50;99.41
64827;BME280;51265;53.972;12.286;2023-04-29T10:01:54;100533.66;;;11.21;96.88
64827;BME280;51265;53.972;12.286;2023-04-29T10:04:26;100528.97;;;11.21;96.35
64827;BME280;51265;53.972;12.286;2023-04-29T10:06:53;100539.38;;;11.25;96.64
64827;BME280;51265;53.972;12.286;2023-04-29T10:09:21;100539.38;;;11.38;96.86
64827;BME280;51265;53.972;12.286;2023-04-29T10:11:52;100537.66;;;11.42;96.11
64827;BME280;51265;53.972;12.286;2023-04-29T10:14:21;100536.94;;;11.51;95.93
64827;BME280;51265;53.972;12.286;2023-04-29T10:17:01;100535.31;;;11.50;94.99
64827;BME280;51265;53.972;12.286;2023-04-29T10:22:04;100565.41;;;12.01;96.28
64827;BME280;51265;53.972;12.286;2023-04-29T10:24:34;100555.88;;;12.21;94.26
64827;BME280;51265;53.972;12.286;2023-04-29T10:27:06;100538.97;;;12.45;91.95
64827;BME280;51265;53.972;12.286;2023-04-29T10:29:35;100554.63;;;12.72;92.71
64827;BME280;51265;53.972;12.286;2023-04-29T10:32:03;100534.22;;;12.59;89.42
64827;BME280;51265;53.972;12.286;2023-04-29T10:34:33;100486.09;;;12.29;86.19
64827;BME280;51265;53.972;12.286;2023-04-29T10:37:02;100499.78;;;12.34;86.97
64827;BME280;51265;53.972;12.286;2023-04-29T10:39:41;100516.34;;;12.34;88.11
64827;BME280;51265;53.972;12.286;2023-04-29T10:42:36;100504.16;;;12.13;87.00
64827;BME280;51265;53.972;12.286;2023-04-29T10:45:25;100510.56;;;12.44;86.49
64827;BME280;51265;53.972;12.286;2023-04-29T10:53:15;100464.22;;;12.64;81.79
64827;BME280;51265;53.972;12.286;2023-04-29T10:55:46;100439.72;;;12.17;78.58
64827;BME280;51265;53.972;12.286;2023-04-29T10:58:36;100464.47;;;12.54;78.66
64827;BME280;51265;53.972;12.286;2023-04-29T11:01:03;100444.59;;;12.43;77.33
64827;BME280;51265;53.972;12.286;2023-04-29T11:03:48;100467.97;;;12.45;78.12
64827;BME280;51265;53.972;12.286;2023-04-29T11:06:15;100446.63;;;12.60;77.15
64827;BME280;51265;53.972;12.286;2023-04-29T11:08:42;100433.84;;;12.41;75.07
64827;BME280;51265;53.972;12.286;2023-04-29T11:11:08;100450.41;;;12.41;75.45
64827;BME280;51265;53.972;12.286;2023-04-29T11:13:39;100435.94;;;12.36;75.38
64827;BME280;51265;53.972;12.286;2023-04-29T11:16:07;100414.22;;;12.43;73.97
64827;BME280;51265;53.972;12.286;2023-04-29T11:18:35;100446.91;;;12.81;74.39
64827;BME280;51265;53.972;12.286;2023-04-29T11:23:35;100420.94;;;13.30;72.89
64827;BME280;51265;53.972;12.286;2023-04-29T11:26:02;100410.34;;;13.32;71.84
64827;BME280;51265;53.972;12.286;2023-04-29T11:28:31;100400.44;;;13.31;70.66
64827;BME280;51265;53.972;12.286;2023-04-29T11:30:58;100399.44;;;13.27;71.66
64827;BME280;51265;53.972;12.286;2023-04-29T11:33:26;100421.44;;;13.50;72.16
64827;BME280;51265;53.972;12.286;2023-04-29T11:35:53;100427.13;;;13.44;71.69
64827;BME280;51265;53.972;12.286;2023-04-29T11:38:27;100406.16;;;13.43;70.65
64827;BME280;51265;53.972;12.286;2023-04-29T11:40:58;100428.81;;;13.63;71.27
64827;BME280;51265;53.972;12.286;2023-04-29T11:43:25;100428.13;;;13.66;71.00
64827;BME280;51265;53.972;12.286;2023-04-29T11:45:52;100446.72;;;14.09;71.48
64827;BME280;51265;53.972;12.286;2023-04-29T11:48:23;100415.44;;;13.91;69.80
64827;BME280;51265;53.972;12.286;2023-04-29T11:50:52;100362.34;;;13.45;67.22
64827;BME280;51265;53.972;12.286;2023-04-29T11:53:19;100365.16;;;13.63;66.67
64827;BME280;51265;53.972;12.286;2023-04-29T11:55:46;100344.13;;;13.62;65.44
64827;BME280;51265;53.972;12.286;2023-04-29T11:58:16;100317.44;;;13.57;64.25
64827;BME280;51265;53.972;12.286;2023-04-29T12:00:43;100315.34;;;13.63;63.76
64827;BME280;51265;53.972;12.286;2023-04-29T12:03:17;100266.50;;;13.41;60.37
64827;BME280;51265;53.972;12.286;2023-04-29T12:05:47;100328.34;;;13.62;63.39
64827;BME280;51265;53.972;12.286;2023-04-29T12:08:23;100276.75;;;13.49;61.27
64827;BME280;51265;53.972;12.286;2023-04-29T12:10:51;100274.50;;;13.25;61.02
64827;BME280;51265;53.972;12.286;2023-04-29T12:13:18;100310.63;;;13.72;62.19
64827;BME280;51265;53.972;12.286;2023-04-29T12:15:46;100311.88;;;13.83;62.36
64827;BME280;51265;53.972;12.286;2023-04-29T12:18:14;100323.28;;;13.90;63.00
64827;BME280;51265;53.972;12.286;2023-04-29T12:20:42;100366.25;;;14.14;65.17
64827;BME280;51265;53.972;12.286;2023-04-29T12:25:39;100336.59;;;14.14;64.24
64827;BME280;51265;53.972;12.286;2023-04-29T12:28:12;100288.84;;;14.17;61.19
64827;BME280;51265;53.972;12.286;2023-04-29T12:30:38;100216.97;;;14.21;57.07
64827;BME280;51265;53.972;12.286;2023-04-29T12:33:08;100257.84;;;14.24;58.59
64827;BME280;51265;53.972;12.286;2023-04-29T12:35:35;100245.69;;;14.55;58.13
64827;BME280;51265;53.972;12.286;2023-04-29T12:38:02;100285.97;;;14.82;59.83
64827;BME280;51265;53.972;12.286;2023-04-29T12:40:28;100265.75;;;14.52;59.66
64827;BME280;51265;53.972;12.286;2023-04-29T12:42:56;100266.38;;;15.08;58.08
64827;BME280;51265;53.972;12.286;2023-04-29T12:45:30;100248.91;;;15.28;57.17
64827;BME280;51265;53.972;12.286;2023-04-29T12:47:57;100226.72;;;14.86;57.12
64827;BME280;51265;53.972;12.286;2023-04-29T12:50:30;100199.75;;;14.45;56.76
64827;BME280;51265;53.972;12.286;2023-04-29T12:52:57;100174.38;;;14.05;55.51
64827;BME280;51265;53.972;12.286;2023-04-29T12:55:24;100190.53;;;14.32;55.64
64827;BME280;51265;53.972;12.286;2023-04-29T12:57:51;100197.41;;;14.26;55.76
64827;BME280;51265;53.972;12.286;2023-04-29T13:00:17;100207.69;;;14.17;56.77
64827;BME280;51265;53.972;12.286;2023-04-29T13:02:45;100250.16;;;14.38;58.02
64827;BME280;51265;53.972;12.286;2023-04-29T13:05:13;100257.53;;;14.26;59.20
64827;BME280;51265;53.972;12.286;2023-04-29T13:07:39;100286.56;;;14.58;59.90
64827;BME280;51265;53.972;12.286;2023-04-29T13:10:06;100323.09;;;14.89;60.86
64827;BME280;51265;53.972;12.286;2023-04-29T13:12:32;100281.28;;;14.35;60.47
64827;BME280;51265;53.972;12.286;2023-04-29T13:14:59;100308.09;;;14.61;60.79
64827;BME280;51265;53.972;12.286;2023-04-29T13:17:25;100257.50;;;14.34;58.76
64827;BME280;51265;53.972;12.286;2023-04-29T13:19:51;100243.03;;;14.20;58.63